createdAt,value
2018-08-13T00:06:27.970Z,2.67
2018-08-13T00:09:14.619Z,2.73
2018-08-13T00:12:18.028Z,2.70
2018-08-13T00:15:34.918Z,2.87
2018-08-13T00:18:57.480Z,2.80
2018-08-13T00:21:55.964Z,2.70
2018-08-13T00:25:11.720Z,1.90
2018-08-13T00:52:00.826Z,2.67
2018-08-13T00:59:45.473Z,2.20
2018-08-13T01:04:27.234Z,1.73
2018-08-13T01:07:27.079Z,2.40
2018-08-13T01:14:02.322Z,2.00
2018-08-13T01:17:07.387Z,2.00
2018-08-13T01:23:06.105Z,1.73
2018-08-13T01:25:53.939Z,2.00
2018-08-13T01:30:26.503Z,1.57
2018-08-13T01:33:17.542Z,2.13
2018-08-13T01:44:17.585Z,1.73
2018-08-13T01:47:11.837Z,3.27
2018-08-13T01:50:03.418Z,2.70
2018-08-13T02:00:11.524Z,2.53
2018-08-13T02:03:02.901Z,1.73
2018-08-13T02:05:48.483Z,2.00
2018-08-13T02:08:35.079Z,1.77
2018-08-13T02:14:05.792Z,1.57
2018-08-13T02:16:57.022Z,1.73
2018-08-13T02:20:23.392Z,2.00
2018-08-13T02:26:30.714Z,1.77
2018-08-13T02:32:43.263Z,1.60
2018-08-13T02:35:32.863Z,1.47
2018-08-13T02:38:35.904Z,3.03
2018-08-13T02:41:39.122Z,1.87
2018-08-13T02:44:36.665Z,2.03
2018-08-13T02:47:24.205Z,1.80
2018-08-13T02:50:09.393Z,1.60
2018-08-13T02:53:29.964Z,1.80
2018-08-13T02:56:50.079Z,1.90
2018-08-13T02:59:56.779Z,4.20
2018-08-13T03:02:58.522Z,2.10
2018-08-13T03:05:44.797Z,3.20
2018-08-13T03:14:37.953Z,3.27
2018-08-13T03:17:44.956Z,2.63
2018-08-13T03:20:35.184Z,3.17
2018-08-13T03:23:47.986Z,2.37
2018-08-13T03:29:57.383Z,4.93
2018-08-13T03:41:45.132Z,3.33
2018-08-13T03:44:34.059Z,2.53
2018-08-13T03:47:43.868Z,2.00
2018-08-13T03:53:45.954Z,2.60
2018-08-13T03:56:47.838Z,3.37
2018-08-13T03:59:50.043Z,2.90
2018-08-13T04:12:46.123Z,4.07
2018-08-13T04:15:33.207Z,3.93
2018-08-13T04:18:13.586Z,3.93
2018-08-13T04:21:07.992Z,3.80
2018-08-13T04:24:02.441Z,4.93
2018-08-13T04:27:09.347Z,4.17
2018-08-13T04:33:00.333Z,3.43
2018-08-13T04:41:35.624Z,4.20
2018-08-13T04:44:34.143Z,3.50
2018-08-13T04:47:21.788Z,3.83
2018-08-13T04:50:03.063Z,3.30
2018-08-13T04:52:40.641Z,4.13
2018-08-13T04:55:16.682Z,5.30
2018-08-13T04:58:01.395Z,4.73
2018-08-13T05:00:39.675Z,4.37
2018-08-13T05:07:29.482Z,5.30
2018-08-13T05:10:21.554Z,3.63
2018-08-13T05:15:54.917Z,3.37
2018-08-13T05:18:47.116Z,4.80
2018-08-13T05:21:28.773Z,4.90
2018-08-13T05:24:30.658Z,7.67
2018-08-13T05:30:12.807Z,9.87
2018-08-13T05:32:46.619Z,9.20
2018-08-13T05:35:30.458Z,11.27
2018-08-13T05:40:46.870Z,8.87
2018-08-13T05:43:35.352Z,8.30
2018-08-13T05:46:23.276Z,6.37
2018-08-13T05:49:02.468Z,7.63
2018-08-13T05:51:49.932Z,6.40
2018-08-13T05:54:30.818Z,6.77
2018-08-13T05:59:59.086Z,6.53
2018-08-13T06:02:46.088Z,7.20
2018-08-13T06:05:25.579Z,6.87
2018-08-13T06:11:11.691Z,5.80
2018-08-13T06:13:48.878Z,6.33
2018-08-13T06:16:26.370Z,5.97
2018-08-13T06:19:11.555Z,4.80
2018-08-13T06:21:55.806Z,5.30
2018-08-13T06:24:39.022Z,5.27
2018-08-13T06:27:33.739Z,4.57
2018-08-13T06:30:23.549Z,5.07
2018-08-13T06:33:03.483Z,4.97
2018-08-13T06:36:15.732Z,5.37
2018-08-13T06:39:00.417Z,5.50
2018-08-13T06:41:56.360Z,5.00
2018-08-13T06:47:26.437Z,5.20
2018-08-13T06:50:06.753Z,5.00
2018-08-13T06:52:55.273Z,5.40
2018-08-13T06:55:46.633Z,5.00
2018-08-13T06:58:41.207Z,5.17
2018-08-13T07:01:27.042Z,5.30
2018-08-13T07:04:12.354Z,5.23
2018-08-13T07:06:58.935Z,5.20
2018-08-13T07:09:57.612Z,5.13
2018-08-13T07:12:35.854Z,4.27
2018-08-13T07:15:52.207Z,5.67
2018-08-13T07:18:32.982Z,4.17
2018-08-13T07:21:19.647Z,3.50
2018-08-13T07:24:03.890Z,4.30
2018-08-13T07:26:51.925Z,3.90
2018-08-13T07:29:44.318Z,4.30
2018-08-13T07:38:15.980Z,4.17
2018-08-13T07:41:03.950Z,4.33
2018-08-13T18:48:38.333Z,6.80
2018-08-13T18:51:30.457Z,10.00
2018-08-13T18:54:26.288Z,7.50
2018-08-13T19:01:27.602Z,8.20
2018-08-13T19:04:16.983Z,5.58
2018-08-13T19:07:17.373Z,7.83
2018-08-13T19:10:11.654Z,7.30
2018-08-13T19:13:19.720Z,6.70
2018-08-13T19:21:23.102Z,7.40
2018-08-13T19:24:17.943Z,6.70
2018-08-13T19:27:24.019Z,6.07
2018-08-13T19:33:58.127Z,8.78
2018-08-13T19:36:49.871Z,8.30
2018-08-13T19:46:04.375Z,7.43
2018-08-13T19:49:13.071Z,7.80
2018-08-13T23:53:20.499Z,6.50
2018-08-13T23:56:45.575Z,5.93
2018-08-13T23:59:42.254Z,6.93
